KSMN

Lemhi County Airport

Salmon, Idaho, USA
KSMN 182337Z 1900/1924 21012KT P6SM FEW045 BKN070 OVC080 FM190200 22010G18KT 5SM -SNRA BR SCT025 OVC050 FM190300 23010G18KT 4SM -SN BR OVC040 FM190600 25012G24KT P6SM VCSH OVC050
Issued Valid From Valid To
Dec-18 @ 23:37 UTC
(2 hours ago)
Dec-19 @ 00:00 UTC
(an hour ago)
Dec-20 @ 00:00 UTC
(in 23 hours)
Dec-19 @ 00:00 to Dec-19 @ 02:00
KSMN 182337Z 1900/1924 21012KT P6SM FEW045 BKN070 OVC080
Wind Visibility Clouds
210° at 12 knots Greater than 6 miles
  • Few at 4,500' AGL
  • Broken at 7,000' AGL
  • Overcast at 8,000' AGL
From Dec-19 @ 02:00 to Dec-19 @ 03:00
FM190200 22010G18KT 5SM -SNRA BR SCT025 OVC050
Wind Visibility Clouds Conditions
220° at 10 knots
 Gusting to 18 knots
5 miles
  • Scattered at 2,500' AGL
  • Overcast at 5,000' AGL
  • Light Snow
  • Light Rain
  • Mist
From Dec-19 @ 03:00 to Dec-19 @ 06:00
FM190300 23010G18KT 4SM -SN BR OVC040
Wind Visibility Clouds Conditions
230° at 10 knots
 Gusting to 18 knots
4 miles
  • Overcast at 4,000' AGL
  • Light Snow
  • Mist
From Dec-19 @ 06:00 to Dec-20 @ 00:00
FM190600 25012G24KT P6SM VCSH OVC050
Wind Visibility Clouds
250° at 12 knots
 Gusting to 24 knots
Greater than 6 miles
  • Overcast at 5,000' AGL
KSMN 182337Z 1900/1924 21012KT P6SM FEW045 BKN070 OVC080 FM190200 22010G18KT 5SM -SNRA BR SCT025 OVC050 FM190300 23010G18KT 4SM -SN BR OVC040 FM190600 25012G24KT P6SM VCSH OVC050
Issued Dec-18 @ 23:37 UTC
(2 hours ago)
Valid From Dec-19 @ 00:00 UTC
(an hour ago)
Valid To Dec-20 @ 00:00 UTC
(in 23 hours)
Dec-19 @ 00:00 - Dec-19 @ 02:00
Wind Visibility
210° at 12 knots Greater than 6 miles
Clouds
  • Few at 4,500' AGL
  • Broken at 7,000' AGL
  • Overcast at 8,000' AGL
From Dec-19 @ 02:00 - Dec-19 @ 03:00
Wind Visibility
220° at 10 knots
 Gusting to 18 knots
5 miles
Clouds
  • Scattered at 2,500' AGL
  • Overcast at 5,000' AGL
Conditions
  • Light Snow
  • Light Rain
  • Mist
From Dec-19 @ 03:00 - Dec-19 @ 06:00
Wind Visibility
230° at 10 knots
 Gusting to 18 knots
4 miles
Clouds
  • Overcast at 4,000' AGL
Conditions
  • Light Snow
  • Mist
From Dec-19 @ 06:00 - Dec-20 @ 00:00
Wind Visibility
250° at 12 knots
 Gusting to 24 knots
Greater than 6 miles
Clouds
  • Overcast at 5,000' AGL